< < Back
Terminal Aerodrome Forecast


Current Version              Previous Versions:   1  2  3  4  5  6  7  8  9  

Terminal Aerodrome Forecast

002
FTUS44 KOHX 010100 AAA
TAFBNA
TAF AMD
KBNA 010126Z 0101/0124 25008KT P6SM BKN050
     FM010800 18005KT P6SM SCT008 BKN011
      TEMPO 0110/0113 BKN008 OVC011
     FM011500 20005KT P6SM BKN025
     FM011700 20008G16KT P6SM SCT040=

Latest METAR

365
SAUS70 KWBC 011200 RRX
MTRBNA
METAR KBNA 011153Z 19008KT 10SM FEW034 SCT120 23/22 A3007 RMK AO2 SLP176
T02330222 10239 20228 53001


USA.gov is the U.S. government's official web portal to all federal, state and local government web resources and services.